Time;durP1;ratioP1;P1;durP2;ratioP2;P2;SDS_P1;SDS_P2;PMS_P1;PMS_P2;Temp;Humidity;BMP_temperature;BMP_pressure;BME280_temperature;BME280_humidity;BME280_pressure;Samples;Min_cycle;Max_cycle;Signal;HPM_P1;HPM_P2
2022/01/09 00:02:22;;;;;;;7.13;4.68;;;4.00;99.90;;;;;;5097949;28;20040;-70
2022/01/09 00:04:47;;;;;;;6.63;4.70;;;4.00;99.90;;;;;;5100481;28;20052;-70
2022/01/09 00:07:13;;;;;;;7.78;5.50;;;4.00;99.90;;;;;;5095301;28;20039;-70
2022/01/09 00:09:41;;;;;;;7.30;5.43;;;4.30;99.90;;;;;;5088266;28;20044;-71
2022/01/09 00:12:07;;;;;;;7.20;5.00;;;3.90;99.90;;;;;;5098286;28;20107;-71
2022/01/09 00:14:33;;;;;;;8.55;5.57;;;3.90;99.90;;;;;;5091744;28;20043;-71
2022/01/09 00:16:59;;;;;;;7.13;4.90;;;3.90;99.90;;;;;;5099774;28;20376;-71
2022/01/09 00:19:26;;;;;;;7.30;4.85;;;4.00;99.90;;;;;;5092060;28;20041;-70
2022/01/09 00:21:52;;;;;;;6.63;5.25;;;3.90;99.90;;;;;;5087885;28;20040;-71
2022/01/09 00:24:18;;;;;;;7.45;4.88;;;3.90;99.90;;;;;;5093787;28;20446;-72
2022/01/09 00:26:43;;;;;;;7.55;4.80;;;4.00;99.90;;;;;;5091858;28;20048;-71
2022/01/09 00:29:10;;;;;;;7.05;4.97;;;3.90;99.90;;;;;;5099201;28;20044;-71
2022/01/09 00:31:36;;;;;;;6.97;4.47;;;4.10;99.90;;;;;;5096168;28;20074;-70
2022/01/09 00:34:02;;;;;;;7.28;5.05;;;4.30;99.90;;;;;;5091085;28;20384;-71
2022/01/09 00:36:28;;;;;;;7.22;4.97;;;4.30;99.90;;;;;;5099405;28;20040;-71
2022/01/09 00:38:54;;;;;;;7.63;5.05;;;3.90;99.90;;;;;;5097974;28;20096;-85
2022/01/09 00:41:20;;;;;;;8.13;4.60;;;4.00;99.90;;;;;;5085413;28;20127;-85
2022/01/09 00:43:45;;;;;;;6.03;4.78;;;4.00;99.90;;;;;;5080681;28;20066;-80
2022/01/09 00:46:11;;;;;;;6.55;4.40;;;4.00;99.90;;;;;;5080093;28;20048;-82
2022/01/09 00:48:37;;;;;;;7.47;4.88;;;4.00;99.90;;;;;;5086538;28;20106;-80
2022/01/09 00:51:03;;;;;;;5.03;4.07;;;4.00;99.90;;;;;;5080944;28;20437;-78
2022/01/09 00:53:28;;;;;;;7.90;5.68;;;4.00;99.90;;;;;;5093063;28;20045;-81
2022/01/09 00:55:54;;;;;;;6.25;4.80;;;3.90;99.90;;;;;;5074571;28;20332;-80
2022/01/09 00:58:20;;;;;;;5.72;4.45;;;3.90;99.90;;;;;;5092857;28;20097;-84
2022/01/09 01:00:46;;;;;;;6.25;4.80;;;3.90;99.90;;;;;;5100686;28;20036;-78
2022/01/09 01:03:11;;;;;;;6.75;4.82;;;3.90;99.90;;;;;;5097796;28;20044;-77
2022/01/09 01:05:37;;;;;;;5.75;4.30;;;4.00;99.90;;;;;;5097916;28;20059;-81
2022/01/09 01:08:03;;;;;;;6.43;4.85;;;3.90;99.90;;;;;;5088795;28;20053;-78
2022/01/09 01:10:29;;;;;;;6.82;4.90;;;4.00;99.90;;;;;;5083500;28;20415;-81
2022/01/09 01:12:55;;;;;;;7.93;4.65;;;3.90;99.90;;;;;;5084788;28;20036;-82
2022/01/09 01:15:21;;;;;;;7.95;5.10;;;3.90;99.90;;;;;;5100396;28;20567;-82
2022/01/09 01:17:46;;;;;;;6.88;4.75;;;3.90;99.90;;;;;;5093465;28;20063;-85
2022/01/09 01:20:13;;;;;;;7.55;5.82;;;4.00;99.90;;;;;;5094681;28;20054;-80
2022/01/09 01:22:40;;;;;;;7.35;4.80;;;4.00;99.90;;;;;;5099149;28;20077;-86
2022/01/09 01:25:06;;;;;;;7.72;5.68;;;3.90;99.90;;;;;;5085734;28;20060;-78
2022/01/09 01:27:32;;;;;;;8.75;6.07;;;4.00;99.90;;;;;;5085990;28;20043;-80
2022/01/09 01:29:58;;;;;;;8.05;5.55;;;4.10;99.90;;;;;;5099121;28;20048;-80
2022/01/09 01:32:24;;;;;;;6.82;5.18;;;4.00;99.90;;;;;;5097797;28;20048;-77
2022/01/09 01:34:51;;;;;;;7.57;5.57;;;4.00;99.90;;;;;;5101823;28;20103;-77
2022/01/09 01:37:17;;;;;;;8.35;5.72;;;4.10;99.90;;;;;;5098786;28;20040;-78
2022/01/09 01:39:43;;;;;;;8.05;5.43;;;4.00;99.90;;;;;;5093752;28;20052;-77
2022/01/09 01:42:08;;;;;;;8.75;6.20;;;4.00;99.90;;;;;;5095596;28;20060;-77
2022/01/09 01:44:45;;;;;;;8.90;5.90;;;4.00;99.90;;;;;;5100035;28;20066;-78
2022/01/09 01:47:13;;;;;;;8.63;5.78;;;4.00;99.90;;;;;;5101167;28;20048;-78
2022/01/09 01:49:38;;;;;;;8.63;5.78;;;4.00;99.90;;;;;;5091350;28;20051;-80
2022/01/09 01:52:05;;;;;;;8.45;5.90;;;4.00;99.90;;;;;;5101318;28;20054;-81
2022/01/09 01:54:32;;;;;;;8.95;5.65;;;4.00;99.90;;;;;;5105470;28;20047;-78
2022/01/09 01:56:58;;;;;;;8.40;6.10;;;3.90;99.90;;;;;;5115554;28;20040;-79
2022/01/09 01:59:24;;;;;;;8.52;5.97;;;4.20;99.90;;;;;;5100380;28;20052;-78
2022/01/09 02:01:49;;;;;;;9.82;6.13;;;4.10;99.90;;;;;;5100103;28;20048;-77
2022/01/09 02:04:15;;;;;;;9.68;6.47;;;3.90;99.90;;;;;;5098940;28;20048;-78
2022/01/09 02:06:41;;;;;;;8.68;6.00;;;3.90;99.90;;;;;;5099390;28;20040;-84
2022/01/09 02:09:07;;;;;;;9.73;7.05;;;3.90;99.90;;;;;;5094087;28;20055;-81
2022/01/09 02:11:34;;;;;;;11.05;7.28;;;3.90;99.90;;;;;;5096082;28;20089;-80
2022/01/09 02:14:00;;;;;;;10.00;6.97;;;3.90;99.90;;;;;;5098993;28;20036;-80
2022/01/09 02:16:26;;;;;;;11.13;7.65;;;3.90;99.90;;;;;;5098629;28;20391;-80
2022/01/09 02:18:52;;;;;;;10.88;6.78;;;3.90;99.90;;;;;;5099522;28;20056;-79
2022/01/09 02:21:18;;;;;;;12.57;7.88;;;3.90;99.90;;;;;;5093787;28;20119;-76
2022/01/09 02:23:47;;;;;;;14.77;8.82;;;3.90;99.90;;;;;;5088740;28;20093;-81
2022/01/09 02:26:20;;;;;;;14.50;8.80;;;3.90;99.90;;;;;;5093678;28;20558;-82
2022/01/09 02:28:47;;;;;;;15.55;9.85;;;4.00;99.90;;;;;;5078926;28;20047;-81
2022/01/09 02:31:14;;;;;;;13.85;9.32;;;3.90;99.90;;;;;;5083278;28;20059;-77
2022/01/09 02:33:40;;;;;;;16.95;10.55;;;4.10;99.90;;;;;;5080407;28;20039;-77
2022/01/09 02:36:06;;;;;;;16.73;11.50;;;3.90;99.90;;;;;;5087702;28;20487;-83
2022/01/09 02:38:32;;;;;;;17.60;11.50;;;3.90;99.90;;;;;;5099039;28;20047;-80
2022/01/09 02:40:57;;;;;;;18.60;10.60;;;3.90;99.90;;;;;;5095701;28;20051;-80
2022/01/09 02:43:23;;;;;;;19.25;11.43;;;3.90;99.90;;;;;;5098880;28;20055;-80
2022/01/09 02:45:59;;;;;;;19.67;12.45;;;4.10;99.90;;;;;;5091482;28;20087;-80
2022/01/09 02:48:27;;;;;;;20.58;11.73;;;3.90;99.90;;;;;;5086996;28;20056;-83
2022/01/09 02:51:03;;;;;;;20.17;13.25;;;3.90;99.90;;;;;;5098093;28;20044;-78
2022/01/09 02:53:33;;;;;;;21.98;11.90;;;4.10;99.90;;;;;;5077108;28;20053;-78
2022/01/09 02:55:59;;;;;;;22.08;14.05;;;3.90;99.90;;;;;;5087041;28;20059;-82
2022/01/09 02:58:24;;;;;;;20.33;12.95;;;3.90;99.90;;;;;;5098398;28;20036;-83
2022/01/09 03:00:50;;;;;;;23.42;14.25;;;3.90;99.90;;;;;;5098879;28;20044;-79
2022/01/09 03:03:16;;;;;;;22.95;14.32;;;3.90;99.90;;;;;;5098346;28;20072;-79
2022/01/09 03:05:42;;;;;;;28.75;16.88;;;3.90;99.90;;;;;;5099067;28;20040;-82
2022/01/09 03:08:09;;;;;;;25.23;14.45;;;4.10;99.90;;;;;;5085920;28;20126;-81
2022/01/09 03:10:35;;;;;;;23.00;14.00;;;4.00;99.90;;;;;;5082236;28;20053;-82
2022/01/09 03:13:00;;;;;;;21.27;13.27;;;4.10;99.90;;;;;;5082716;28;20084;-81
2022/01/09 03:15:26;;;;;;;24.77;14.43;;;4.00;99.90;;;;;;5099023;28;20051;-79
2022/01/09 03:17:52;;;;;;;26.05;14.40;;;4.00;99.90;;;;;;5097715;28;20055;-81
2022/01/09 03:20:21;;;;;;;27.15;15.73;;;4.00;99.90;;;;;;5093561;28;20067;-77
2022/01/09 03:22:48;;;;;;;24.05;13.23;;;4.10;99.90;;;;;;5082662;28;20121;-83
2022/01/09 03:25:15;;;;;;;22.52;13.05;;;4.00;99.90;;;;;;5090296;28;20048;-82
2022/01/09 03:27:42;;;;;;;23.38;12.95;;;4.00;99.90;;;;;;5099075;28;20040;-84
2022/01/09 03:30:09;;;;;;;21.95;13.30;;;4.00;99.90;;;;;;5098088;28;20055;-83
2022/01/09 03:32:36;;;;;;;21.80;11.88;;;4.00;99.90;;;;;;5089925;28;20070;-83
2022/01/09 03:35:04;;;;;;;18.88;11.32;;;4.20;99.90;;;;;;5084434;28;20044;-83
2022/01/09 03:37:30;;;;;;;23.52;12.30;;;4.10;99.90;;;;;;5094424;28;20040;-82
2022/01/09 03:39:58;;;;;;;19.73;10.70;;;4.10;99.90;;;;;;5102749;28;20545;-83
2022/01/09 03:42:23;;;;;;;16.40;8.15;;;4.10;99.90;;;;;;5101917;28;20078;-79
2022/01/09 03:44:49;;;;;;;13.80;8.65;;;4.20;99.90;;;;;;5102330;28;20052;-83
2022/01/09 03:47:15;;;;;;;14.63;7.72;;;4.40;99.90;;;;;;5099681;28;20051;-81
2022/01/09 03:49:40;;;;;;;16.05;8.10;;;4.30;99.90;;;;;;5091560;28;20044;-81
2022/01/09 03:52:06;;;;;;;12.45;5.72;;;4.30;99.90;;;;;;5102032;28;20064;-73
2022/01/09 03:54:32;;;;;;;9.00;4.47;;;4.40;99.90;;;;;;5105525;28;20075;-73
2022/01/09 03:56:58;;;;;;;10.00;3.83;;;4.40;99.90;;;;;;5105419;28;20040;-75
2022/01/09 03:59:24;;;;;;;12.15;4.80;;;4.50;99.90;;;;;;5101559;28;20438;-75
2022/01/09 04:01:51;;;;;;;13.23;5.10;;;4.70;99.90;;;;;;5088107;28;20056;-75
2022/01/09 04:04:17;;;;;;;9.48;4.18;;;4.60;99.90;;;;;;5095582;28;20435;-75
2022/01/09 04:06:48;;;;;;;11.20;4.50;;;4.60;99.90;;;;;;5101132;28;20044;-77
2022/01/09 04:09:28;;;;;;;9.32;3.75;;;4.60;99.90;;;;;;5101517;28;20044;-74
2022/01/09 04:12:02;;;;;;;11.98;3.97;;;4.70;99.90;;;;;;5099580;28;20526;-74
2022/01/09 04:14:27;;;;;;;18.73;4.80;;;4.60;99.90;;;;;;5102496;28;20042;-76
2022/01/09 04:16:53;;;;;;;13.60;3.90;;;4.70;99.90;;;;;;5101524;28;20103;-74
2022/01/09 04:19:19;;;;;;;12.52;3.38;;;4.80;99.90;;;;;;5093616;28;20052;-75
2022/01/09 04:21:45;;;;;;;14.48;4.03;;;4.80;99.90;;;;;;5087978;28;20438;-77
2022/01/09 04:24:10;;;;;;;14.27;4.38;;;4.90;99.90;;;;;;5096261;28;20134;-73
2022/01/09 04:26:37;;;;;;;17.08;4.82;;;5.00;99.90;;;;;;5101662;28;20036;-75
2022/01/09 04:29:03;;;;;;;17.17;4.97;;;5.00;99.90;;;;;;5100987;28;20047;-74
2022/01/09 04:31:29;;;;;;;23.48;5.20;;;5.10;99.90;;;;;;5102343;28;20102;-75
2022/01/09 04:33:55;;;;;;;26.55;5.35;;;5.10;99.90;;;;;;5094776;28;20032;-74
2022/01/09 04:36:20;;;;;;;20.27;4.53;;;5.20;99.90;;;;;;5090999;28;20044;-77
2022/01/09 04:38:46;;;;;;;19.02;4.68;;;5.10;99.90;;;;;;5091216;28;20040;-77
2022/01/09 04:41:12;;;;;;;26.00;5.90;;;5.20;99.90;;;;;;5093116;28;20043;-77
2022/01/09 04:43:38;;;;;;;16.75;3.80;;;5.30;99.90;;;;;;5098796;28;20031;-75
2022/01/09 04:46:03;;;;;;;23.85;3.97;;;5.30;99.90;;;;;;5079940;28;20044;-73
2022/01/09 04:48:29;;;;;;;19.15;3.75;;;5.30;99.90;;;;;;5086204;28;20036;-74
2022/01/09 04:50:56;;;;;;;19.45;4.55;;;5.30;99.90;;;;;;5062673;28;20052;-77
2022/01/09 04:53:22;;;;;;;18.30;4.78;;;5.30;99.90;;;;;;5082657;28;20052;-79
2022/01/09 04:55:50;;;;;;;32.90;5.75;;;5.40;99.90;;;;;;5094648;28;20078;-75
2022/01/09 04:58:19;;;;;;;14.85;4.38;;;5.40;99.90;;;;;;5100997;28;20079;-74
2022/01/09 05:00:45;;;;;;;16.15;3.45;;;5.40;99.90;;;;;;5096731;28;20039;-75
2022/01/09 05:03:13;;;;;;;21.58;3.78;;;5.40;99.90;;;;;;5100287;28;20055;-73
2022/01/09 05:05:39;;;;;;;22.50;4.20;;;5.40;99.90;;;;;;5099203;28;20134;-76
2022/01/09 05:08:05;;;;;;;14.55;3.72;;;5.40;99.90;;;;;;5100181;28;20059;-75
2022/01/09 05:10:31;;;;;;;22.23;4.43;;;5.40;99.90;;;;;;5101018;28;20124;-74
2022/01/09 05:12:56;;;;;;;18.17;4.35;;;5.40;99.90;;;;;;5088618;28;20052;-75
2022/01/09 05:15:23;;;;;;;23.77;4.20;;;5.40;99.90;;;;;;5096151;28;20169;-73
2022/01/09 05:17:53;;;;;;;22.83;4.35;;;5.40;99.90;;;;;;5100860;28;20084;-75
2022/01/09 05:20:18;;;;;;;21.00;4.95;;;5.40;99.90;;;;;;5097509;28;20458;-75
2022/01/09 05:22:44;;;;;;;25.02;4.18;;;5.40;99.90;;;;;;5099898;28;20040;-75
2022/01/09 05:25:10;;;;;;;19.75;4.63;;;5.40;99.90;;;;;;5099273;28;20068;-75
2022/01/09 05:27:36;;;;;;;18.67;3.75;;;5.40;99.90;;;;;;5100676;28;20463;-74
2022/01/09 05:30:04;;;;;;;15.02;3.97;;;5.40;99.90;;;;;;5098782;28;20074;-75
2022/01/09 05:32:30;;;;;;;13.35;3.03;;;5.40;99.90;;;;;;5110063;28;20054;-77
2022/01/09 05:34:55;;;;;;;23.55;5.55;;;5.40;99.90;;;;;;5102402;27;20036;-77
2022/01/09 05:37:21;;;;;;;13.75;3.50;;;5.40;99.90;;;;;;5098228;28;20402;-80
2022/01/09 05:39:47;;;;;;;18.70;3.33;;;5.30;99.90;;;;;;5090065;28;20049;-73
2022/01/09 05:42:14;;;;;;;20.30;3.28;;;5.40;99.90;;;;;;5079447;28;20044;-74
2022/01/09 05:44:40;;;;;;;15.98;3.85;;;5.30;99.90;;;;;;5083828;28;20036;-74
2022/01/09 05:47:06;;;;;;;18.63;3.45;;;5.30;99.90;;;;;;5091581;28;20487;-78
2022/01/09 05:49:32;;;;;;;18.23;3.70;;;5.30;99.90;;;;;;5098330;28;20066;-76
2022/01/09 05:51:58;;;;;;;13.00;3.25;;;5.30;99.90;;;;;;5099544;28;20048;-73
2022/01/09 05:54:23;;;;;;;14.90;2.85;;;5.30;99.90;;;;;;5100709;28;20112;-74
2022/01/09 05:56:51;;;;;;;14.38;2.67;;;5.30;99.90;;;;;;5090254;28;20052;-75
2022/01/09 05:59:18;;;;;;;13.50;2.90;;;5.30;99.90;;;;;;5098730;28;20115;-72
2022/01/09 06:01:45;;;;;;;11.90;2.90;;;5.30;99.90;;;;;;5099325;28;20040;-77
2022/01/09 06:04:11;;;;;;;20.13;4.25;;;5.20;99.90;;;;;;5099301;28;20043;-75
2022/01/09 06:06:36;;;;;;;16.23;4.97;;;5.20;99.90;;;;;;5099598;28;20074;-76
2022/01/09 06:09:02;;;;;;;13.82;3.53;;;5.30;99.90;;;;;;5084174;28;20064;-73
2022/01/09 06:11:28;;;;;;;15.85;3.38;;;5.20;99.90;;;;;;5097558;28;20063;-73
2022/01/09 06:13:54;;;;;;;20.08;3.63;;;5.20;99.90;;;;;;5099920;28;20052;-75
2022/01/09 06:16:19;;;;;;;12.85;2.60;;;5.20;99.90;;;;;;5098931;28;20091;-74
2022/01/09 06:18:45;;;;;;;13.98;2.45;;;5.10;99.90;;;;;;5090543;28;20091;-74
2022/01/09 06:21:11;;;;;;;13.68;2.53;;;5.20;99.90;;;;;;5088672;28;20036;-75
2022/01/09 06:23:37;;;;;;;17.38;3.42;;;5.20;99.90;;;;;;5097611;28;20040;-74
2022/01/09 06:26:02;;;;;;;12.02;2.60;;;5.10;99.90;;;;;;5092687;28;20044;-76
2022/01/09 06:28:28;;;;;;;13.77;2.85;;;5.10;99.90;;;;;;5099043;28;20047;-74
2022/01/09 06:30:54;;;;;;;16.00;4.18;;;5.10;99.90;;;;;;5099303;28;20083;-78
2022/01/09 06:33:19;;;;;;;9.82;2.80;;;5.10;99.90;;;;;;5104591;28;20506;-74
2022/01/09 06:35:45;;;;;;;7.72;2.95;;;5.10;99.90;;;;;;5097787;28;20036;-77
2022/01/09 06:38:12;;;;;;;13.80;2.63;;;5.10;99.90;;;;;;5098280;28;20150;-74
2022/01/09 06:40:38;;;;;;;12.93;3.00;;;5.10;99.90;;;;;;5097532;28;20389;-74
2022/01/09 06:43:04;;;;;;;14.10;3.30;;;5.10;99.90;;;;;;5086915;28;20583;-75
2022/01/09 06:45:30;;;;;;;13.73;3.20;;;5.10;99.90;;;;;;5089711;28;20037;-72
2022/01/09 06:47:59;;;;;;;14.30;2.50;;;5.10;99.90;;;;;;5084372;28;20035;-74
2022/01/09 06:50:27;;;;;;;17.17;3.30;;;5.10;99.90;;;;;;5098250;28;20106;-74
2022/01/09 06:52:53;;;;;;;11.73;2.80;;;5.10;99.90;;;;;;5098935;28;20128;-74
2022/01/09 06:55:19;;;;;;;14.73;2.83;;;5.10;99.90;;;;;;5108741;28;20055;-74
2022/01/09 06:57:44;;;;;;;16.60;3.60;;;5.10;99.90;;;;;;5103550;28;20047;-72
2022/01/09 07:00:12;;;;;;;13.70;2.40;;;5.00;99.90;;;;;;5098465;28;20040;-78
2022/01/09 07:02:38;;;;;;;16.60;3.05;;;5.10;99.90;;;;;;5098631;28;20052;-75
2022/01/09 07:05:05;;;;;;;13.45;2.50;;;5.00;99.90;;;;;;5098660;28;20059;-74
2022/01/09 07:07:31;;;;;;;15.75;3.25;;;5.10;99.90;;;;;;5100398;28;20036;-73
2022/01/09 07:09:56;;;;;;;16.42;3.15;;;5.00;99.90;;;;;;5105773;28;20079;-73
2022/01/09 07:12:22;;;;;;;10.05;2.22;;;5.00;99.90;;;;;;5105146;28;20079;-75
2022/01/09 07:14:48;;;;;;;12.02;3.25;;;5.00;99.90;;;;;;5105527;28;20031;-73
2022/01/09 07:17:14;;;;;;;12.05;2.88;;;5.00;99.90;;;;;;5103671;28;20036;-72
2022/01/09 07:19:39;;;;;;;13.77;2.92;;;5.00;99.90;;;;;;5104679;28;20040;-74
2022/01/09 07:22:05;;;;;;;15.75;2.85;;;5.00;99.90;;;;;;5099944;28;20079;-73
2022/01/09 07:24:32;;;;;;;14.05;4.05;;;5.00;99.90;;;;;;5097756;28;20051;-73
2022/01/09 07:26:58;;;;;;;15.20;4.65;;;5.00;99.90;;;;;;5104408;28;20491;-74
2022/01/09 07:29:25;;;;;;;12.85;3.28;;;5.00;99.90;;;;;;5104760;28;20040;-72
2022/01/09 07:31:51;;;;;;;12.13;2.00;;;5.00;99.90;;;;;;5104131;28;20036;-74
2022/01/09 07:34:18;;;;;;;16.75;3.90;;;4.90;99.90;;;;;;5097234;28;20572;-75
2022/01/09 07:36:44;;;;;;;11.75;3.55;;;5.00;99.90;;;;;;5100890;28;20043;-75
2022/01/09 07:39:10;;;;;;;10.65;2.63;;;4.90;99.90;;;;;;5103154;28;20086;-74
2022/01/09 07:41:36;;;;;;;13.43;2.38;;;4.90;99.90;;;;;;5084429;28;20036;-77
2022/01/09 07:44:01;;;;;;;11.73;2.03;;;4.80;99.90;;;;;;5102537;28;20032;-75
2022/01/09 07:46:27;;;;;;;33.13;3.28;;;4.80;99.90;;;;;;5104768;28;20043;-72
2022/01/09 07:48:53;;;;;;;10.75;2.28;;;4.80;99.90;;;;;;5103760;28;20047;-72
2022/01/09 07:51:19;;;;;;;7.45;2.08;;;4.80;99.90;;;;;;5103404;28;20082;-72
2022/01/09 07:53:44;;;;;;;10.13;2.10;;;4.80;99.90;;;;;;5085050;28;20064;-72
2022/01/09 07:56:10;;;;;;;8.00;1.65;;;4.80;99.90;;;;;;5109920;28;20044;-73
2022/01/09 07:58:36;;;;;;;9.68;1.83;;;4.80;99.90;;;;;;5104876;28;20047;-74
2022/01/09 08:01:01;;;;;;;6.47;1.63;;;4.70;99.90;;;;;;5099622;28;20051;-72
2022/01/09 08:03:27;;;;;;;5.03;1.40;;;4.70;99.90;;;;;;5101471;28;20036;-75
2022/01/09 08:05:53;;;;;;;11.38;2.00;;;4.80;99.90;;;;;;5097559;28;20044;-73
2022/01/09 08:08:19;;;;;;;14.05;3.42;;;4.80;99.90;;;;;;5095177;28;20040;-74
2022/01/09 08:10:44;;;;;;;7.10;1.48;;;4.80;99.90;;;;;;5104833;28;20055;-72
2022/01/09 08:13:10;;;;;;;8.05;1.88;;;4.80;99.90;;;;;;5103826;28;20052;-73
2022/01/09 08:15:36;;;;;;;6.18;1.55;;;4.60;99.90;;;;;;5104031;28;20036;-75
2022/01/09 08:18:02;;;;;;;8.35;1.40;;;4.70;99.90;;;;;;5095125;28;20048;-72
2022/01/09 08:20:28;;;;;;;8.88;1.70;;;4.70;99.90;;;;;;5088334;28;20036;-73
2022/01/09 08:22:54;;;;;;;10.07;2.05;;;4.60;99.90;;;;;;5090302;28;20133;-73
2022/01/09 08:25:19;;;;;;;11.55;2.25;;;4.60;99.90;;;;;;5100923;28;20622;-71
2022/01/09 08:27:46;;;;;;;6.85;1.60;;;4.60;99.90;;;;;;5098259;28;20048;-72
2022/01/09 08:30:15;;;;;;;4.93;1.65;;;4.60;99.90;;;;;;5094664;28;20098;-71
2022/01/09 08:32:40;;;;;;;4.05;1.50;;;4.70;99.90;;;;;;5099705;28;20070;-75
2022/01/09 08:35:07;;;;;;;13.25;2.25;;;4.60;99.90;;;;;;5083000;28;20044;-73
2022/01/09 08:37:33;;;;;;;6.13;1.40;;;4.60;99.90;;;;;;5096121;28;20131;-72
2022/01/09 08:39:59;;;;;;;13.80;2.03;;;4.60;99.90;;;;;;5088792;28;20054;-72
2022/01/09 08:42:24;;;;;;;5.90;1.30;;;4.60;99.90;;;;;;5093077;28;20127;-71
2022/01/09 08:44:50;;;;;;;9.43;1.73;;;4.60;99.90;;;;;;5078640;28;20056;-75
2022/01/09 08:47:16;;;;;;;7.47;1.55;;;4.60;99.90;;;;;;5061742;28;20130;-73
2022/01/09 08:49:42;;;;;;;8.65;1.58;;;4.80;99.90;;;;;;5079443;28;20045;-72
2022/01/09 08:52:08;;;;;;;11.70;2.10;;;4.70;99.90;;;;;;5086683;28;20048;-72
2022/01/09 08:54:34;;;;;;;8.23;1.60;;;4.60;99.90;;;;;;5089378;28;20069;-73
2022/01/09 08:57:00;;;;;;;6.75;1.63;;;4.70;99.90;;;;;;5082930;28;20049;-74
2022/01/09 08:59:26;;;;;;;7.13;2.20;;;4.60;99.90;;;;;;5093275;28;20070;-72
2022/01/09 09:01:53;;;;;;;7.70;1.50;;;4.60;99.90;;;;;;5096581;28;20040;-74
2022/01/09 09:04:18;;;;;;;7.90;2.08;;;4.60;99.90;;;;;;5080286;28;20501;-72
2022/01/09 09:06:45;;;;;;;5.95;2.00;;;4.60;99.90;;;;;;5084665;28;20104;-72
2022/01/09 09:09:11;;;;;;;9.05;1.60;;;4.70;99.90;;;;;;5079689;28;20082;-75
2022/01/09 09:11:38;;;;;;;6.85;1.77;;;4.70;99.90;;;;;;5079370;28;20108;-73
2022/01/09 09:14:04;;;;;;;7.43;1.13;;;4.70;99.90;;;;;;5088660;28;20078;-71
2022/01/09 09:16:31;;;;;;;6.13;1.88;;;4.70;99.90;;;;;;5081818;28;20051;-71
2022/01/09 09:18:57;;;;;;;8.52;1.70;;;4.70;99.90;;;;;;5096377;28;20043;-71
2022/01/09 09:21:23;;;;;;;6.55;1.80;;;4.80;99.90;;;;;;5088583;28;20037;-70
2022/01/09 09:23:49;;;;;;;7.38;1.63;;;4.70;99.90;;;;;;5083889;28;20053;-73
2022/01/09 09:26:21;;;;;;;6.55;1.73;;;4.80;99.90;;;;;;5087020;28;20509;-72
2022/01/09 09:28:47;;;;;;;7.40;2.00;;;5.00;99.90;;;;;;5086769;28;20104;-74
2022/01/09 09:31:13;;;;;;;10.13;2.30;;;4.90;99.90;;;;;;5084465;28;20036;-74
2022/01/09 09:33:39;;;;;;;7.95;2.03;;;4.90;99.90;;;;;;5098121;28;20090;-73
2022/01/09 09:36:05;;;;;;;5.38;1.70;;;4.90;99.90;;;;;;5084227;28;20048;-73
2022/01/09 09:38:31;;;;;;;10.10;2.00;;;4.90;99.90;;;;;;5079321;28;20119;-73
2022/01/09 09:40:57;;;;;;;9.48;2.28;;;5.00;99.90;;;;;;5095456;28;20443;-75
2022/01/09 09:43:23;;;;;;;5.85;1.42;;;4.90;99.90;;;;;;5088180;28;20045;-74
2022/01/09 09:45:51;;;;;;;9.57;1.90;;;5.10;99.90;;;;;;5080080;28;20117;-73
2022/01/09 09:48:17;;;;;;;7.28;1.95;;;4.90;99.90;;;;;;5081317;28;20040;-72
2022/01/09 09:50:43;;;;;;;7.97;1.92;;;4.90;99.90;;;;;;5081278;28;20051;-72
2022/01/09 09:53:08;;;;;;;16.38;2.28;;;4.90;99.90;;;;;;5087798;28;20051;-71
2022/01/09 09:55:34;;;;;;;10.15;2.10;;;5.00;99.90;;;;;;5082272;28;20095;-71
2022/01/09 09:58:00;;;;;;;17.73;3.20;;;5.00;99.90;;;;;;5088298;28;20040;-73
2022/01/09 10:00:26;;;;;;;5.80;2.00;;;5.00;99.90;;;;;;5082967;28;20048;-75
2022/01/09 10:02:55;;;;;;;10.10;2.35;;;5.00;99.90;;;;;;5099496;28;20036;-77
2022/01/09 10:05:35;;;;;;;5.68;1.90;;;5.00;99.90;;;;;;5085986;28;20511;-73
2022/01/09 10:08:19;;;;;;;10.70;2.05;;;5.00;99.90;;;;;;5080859;28;20071;-73
2022/01/09 10:10:46;;;;;;;7.18;1.35;;;5.00;99.90;;;;;;5078989;28;20099;-73
2022/01/09 10:13:19;;;;;;;13.48;2.70;;;5.10;99.90;;;;;;5083476;28;20128;-75
2022/01/09 10:15:47;;;;;;;10.52;3.40;;;5.30;99.90;;;;;;5078272;28;20056;-74
2022/01/09 10:18:13;;;;;;;10.48;2.38;;;5.10;99.90;;;;;;5091280;28;20040;-73
2022/01/09 10:20:39;;;;;;;4.22;1.45;;;5.10;99.90;;;;;;5081445;28;20055;-73
2022/01/09 10:23:06;;;;;;;10.90;1.80;;;5.20;99.90;;;;;;5080458;28;20052;-74
2022/01/09 10:25:37;;;;;;;10.55;1.98;;;5.20;99.90;;;;;;5081528;28;20531;-72
2022/01/09 10:28:05;;;;;;;9.90;1.88;;;5.20;99.90;;;;;;5078117;28;20044;-72
2022/01/09 10:30:42;;;;;;;9.57;2.15;;;5.30;99.90;;;;;;5091938;28;20064;-75
2022/01/09 10:33:19;;;;;;;10.50;2.25;;;5.30;99.90;;;;;;5107778;28;20036;-73
2022/01/09 10:35:46;;;;;;;5.03;1.30;;;5.30;99.90;;;;;;5086203;28;20411;-74
2022/01/09 10:38:17;;;;;;;3.72;1.40;;;5.30;99.90;;;;;;5097421;28;20079;-73
2022/01/09 10:40:49;;;;;;;7.97;1.80;;;5.30;99.90;;;;;;5092467;28;20040;-73
2022/01/09 10:43:24;;;;;;;5.95;1.38;;;5.30;99.90;;;;;;5087424;28;20059;-73
2022/01/09 10:45:59;;;;;;;5.93;1.40;;;5.30;99.90;;;;;;5078116;28;20048;-73
2022/01/09 10:48:44;;;;;;;8.52;1.45;;;5.30;99.90;;;;;;5081267;28;20407;-74
2022/01/09 10:51:11;;;;;;;4.53;1.25;;;5.30;99.90;;;;;;5093117;28;20040;-75
2022/01/09 10:53:42;;;;;;;6.07;1.55;;;5.30;99.90;;;;;;5078367;28;20492;-73
2022/01/09 10:56:24;;;;;;;6.03;1.42;;;5.40;99.90;;;;;;5107000;28;20072;-73
2022/01/09 10:58:54;;;;;;;3.10;1.30;;;5.40;99.90;;;;;;5077858;28;20048;-74
2022/01/09 11:01:32;;;;;;;8.30;2.03;;;5.40;99.90;;;;;;5084997;28;20059;-74
2022/01/09 11:04:00;;;;;;;5.30;1.60;;;5.40;99.90;;;;;;5082181;28;20088;-74
2022/01/09 11:06:30;;;;;;;5.13;1.40;;;5.60;99.90;;;;;;5089814;28;20060;-75
2022/01/09 11:08:56;;;;;;;7.00;1.17;;;5.40;99.90;;;;;;5096046;28;20064;-74
2022/01/09 11:11:34;;;;;;;8.05;1.33;;;5.50;99.90;;;;;;5075974;28;20056;-75
2022/01/09 11:14:03;;;;;;;7.60;1.33;;;5.50;99.90;;;;;;5087546;28;20062;-76
2022/01/09 11:16:33;;;;;;;6.32;1.70;;;5.50;99.90;;;;;;5091883;28;20071;-76
2022/01/09 11:19:27;;;;;;;8.02;1.40;;;5.50;99.90;;;;;;5085089;28;20108;-76
2022/01/09 11:22:02;;;;;;;5.70;1.38;;;5.60;99.90;;;;;;5081346;28;20883;-73
2022/01/09 11:24:49;;;;;;;7.20;1.70;;;5.60;99.90;;;;;;5094745;28;20491;-74
2022/01/09 11:27:22;;;;;;;;;;;5.60;99.90;;;;;;5083009;28;20400;-74
2022/01/09 11:30:09;;;;;;;7.15;1.75;;;5.70;99.90;;;;;;5090834;28;19931;-73
2022/01/09 11:33:04;;;;;;;6.07;2.10;;;5.80;99.90;;;;;;5100029;28;20048;-76
2022/01/09 11:35:57;;;;;;;4.25;1.55;;;5.80;99.90;;;;;;5092896;28;20048;-74
2022/01/09 11:38:28;;;;;;;7.60;1.60;;;5.80;99.90;;;;;;5078069;28;20054;-75
2022/01/09 11:41:12;;;;;;;9.30;2.50;;;5.80;99.90;;;;;;5085629;28;20051;-76
2022/01/09 11:43:50;;;;;;;4.38;1.92;;;5.90;99.90;;;;;;5095415;28;20040;-75
2022/01/09 11:46:16;;;;;;;10.38;1.63;;;5.90;99.90;;;;;;5096140;28;20048;-73
2022/01/09 11:48:50;;;;;;;6.13;1.55;;;5.90;99.90;;;;;;5085616;28;20044;-74
2022/01/09 11:51:20;;;;;;;6.47;1.77;;;5.90;99.90;;;;;;5087369;28;20040;-73
2022/01/09 11:53:59;;;;;;;8.63;1.83;;;5.90;99.90;;;;;;5077996;28;20097;-73
2022/01/09 11:56:56;;;;;;;5.30;1.30;;;5.90;99.90;;;;;;5106887;28;20418;-74
2022/01/09 11:59:32;;;;;;;;;;;6.00;99.90;;;;;;5082211;28;20044;-72
2022/01/09 12:02:29;;;;;;;7.65;1.80;;;6.00;99.90;;;;;;5083081;28;20090;-72
2022/01/09 12:05:01;;;;;;;4.88;1.60;;;6.10;99.90;;;;;;5083387;28;20044;-74
2022/01/09 12:07:32;;;;;;;13.30;2.05;;;6.10;99.90;;;;;;5087365;28;20094;-72
2022/01/09 12:09:59;;;;;;;9.35;1.90;;;6.10;99.90;;;;;;5080117;28;20056;-73
2022/01/09 12:12:31;;;;;;;8.57;1.90;;;6.10;99.90;;;;;;5093352;28;20056;-71
2022/01/09 12:15:02;;;;;;;9.98;3.40;;;6.20;99.90;;;;;;5101873;28;20048;-75
2022/01/09 12:17:38;;;;;;;8.57;2.15;;;6.20;99.90;;;;;;5100196;28;20071;-72
2022/01/09 12:20:22;;;;;;;9.32;2.40;;;6.20;99.90;;;;;;5080020;28;20078;-78
2022/01/09 12:22:50;;;;;;;8.50;2.00;;;6.20;99.90;;;;;;5079661;28;20565;-78
2022/01/09 12:25:22;;;;;;;10.60;2.05;;;6.30;99.90;;;;;;5082819;28;20056;-76
2022/01/09 12:27:56;;;;;;;11.15;2.58;;;6.30;99.90;;;;;;5080167;28;20060;-73
2022/01/09 12:33:09;;;;;;;9.15;2.45;;;6.20;99.90;;;;;;5091885;28;20521;-76
2022/01/09 12:35:36;;;;;;;7.28;2.20;;;6.20;99.90;;;;;;5080958;28;20100;-74
2022/01/09 12:38:02;;;;;;;11.95;2.05;;;6.20;99.90;;;;;;5089877;28;20100;-78
2022/01/09 12:40:31;;;;;;;6.57;2.22;;;6.20;99.90;;;;;;5084848;28;20045;-77
2022/01/09 12:42:58;;;;;;;9.77;2.63;;;6.20;99.90;;;;;;5096398;28;20043;-73
2022/01/09 12:45:27;;;;;;;8.10;2.35;;;6.20;99.90;;;;;;5079327;28;20059;-77
2022/01/09 12:47:54;;;;;;;8.65;2.95;;;6.30;99.90;;;;;;5090523;28;20044;-75
2022/01/09 12:50:28;;;;;;;7.53;2.63;;;6.20;99.90;;;;;;5082303;28;20151;-78
2022/01/09 12:53:12;;;;;;;9.40;2.22;;;6.30;99.90;;;;;;5083672;28;20032;-78
2022/01/09 12:56:00;;;;;;;6.68;2.05;;;6.40;99.90;;;;;;5095783;28;20048;-77
2022/01/09 12:58:32;;;;;;;10.13;2.40;;;6.40;99.90;;;;;;5079972;28;20048;-78